KPRO/PRO METAR and TAF weather

Enter ICAO airport designator
Station Type Date Time Source
KPRO METAR 2019/04/25 18:15 UTC NOAA

KPRO 251815Z AUTO 36017G21KT 7SM -RA BKN046 OVC055 11/10 A2989 RMK AO2 T01140101


Station Type Date Time Source
KPRO Decoded METAR 2019/04/25 18:15 UTC NOAA

Station name not available
Apr 25, 2019 - 02:15 PM EDT / 2019.04.25 1815 UTC
Wind: from the N (360 degrees) at 20 MPH (17 KT) gusting to 24 MPH (21 KT):0
Visibility: 7 mile(s):0
Sky conditions: overcast
Weather: light rain
Temperature: 52.5 F (11.4 C)
Dew Point: 50.2 F (10.1 C)
Relative Humidity: 91%
Pressure (altimeter): 29.89 in. Hg (1012 hPa)
ob: KPRO 251815Z AUTO 36017G21KT 7SM -RA BKN046 OVC055 11/10 A2989 RMK AO2 T01140101
cycle: 18

Station Type Date Time Source
KPRO TAF UTC NOAA

Error!

Example: see airport list